createdAt,value
2023-05-19T00:02:09.072Z,13.00
2023-05-19T00:04:36.181Z,12.90
2023-05-19T00:07:03.997Z,13.00
2023-05-19T00:09:31.370Z,13.00
2023-05-19T00:11:58.328Z,13.00
2023-05-19T00:14:25.303Z,13.10
2023-05-19T00:16:52.310Z,13.00
2023-05-19T00:19:19.009Z,13.10
2023-05-19T00:21:45.712Z,13.10
2023-05-19T00:24:13.087Z,13.00
2023-05-19T00:26:39.710Z,13.00
2023-05-19T00:29:06.401Z,13.10
2023-05-19T00:31:34.199Z,13.00
2023-05-19T00:34:01.164Z,13.00
2023-05-19T00:36:27.861Z,13.00
2023-05-19T00:38:54.524Z,13.10
2023-05-19T00:41:21.224Z,13.00
2023-05-19T00:43:47.957Z,13.00
2023-05-19T00:46:14.762Z,13.10
2023-05-19T00:48:44.560Z,13.10
2023-05-19T00:51:14.663Z,13.10
2023-05-19T00:53:41.504Z,13.10
2023-05-19T00:56:08.195Z,13.10
2023-05-19T00:58:36.094Z,13.00
2023-05-19T01:01:04.463Z,13.00
2023-05-19T01:03:35.290Z,13.00
2023-05-19T01:06:05.994Z,13.00
2023-05-19T01:08:37.218Z,13.00
2023-05-19T01:11:08.038Z,13.00
2023-05-19T01:13:39.704Z,13.00
2023-05-19T01:16:19.411Z,13.00
2023-05-19T01:19:13.336Z,13.00
2023-05-19T01:22:00.946Z,12.90
2023-05-19T01:24:56.958Z,12.90
2023-05-19T01:27:58.894Z,12.90
2023-05-19T01:30:44.713Z,12.90
2023-05-19T01:33:17.142Z,12.80
2023-05-19T01:35:45.661Z,12.80
2023-05-19T01:38:14.649Z,12.80
2023-05-19T01:40:43.619Z,12.70
2023-05-19T01:43:12.862Z,12.70
2023-05-19T01:45:40.517Z,12.70
2023-05-19T01:48:10.610Z,12.60
2023-05-19T01:50:37.808Z,12.60
2023-05-19T01:53:04.630Z,12.60
2023-05-19T01:55:31.342Z,12.60
2023-05-19T01:58:05.129Z,12.60
2023-05-19T02:00:55.097Z,12.50
2023-05-19T02:03:54.856Z,12.40
2023-05-19T02:06:55.859Z,12.50
2023-05-19T02:09:28.449Z,12.50
2023-05-19T02:12:00.331Z,12.40
2023-05-19T02:14:35.342Z,12.40
2023-05-19T02:17:05.245Z,12.40
2023-05-19T02:19:35.999Z,12.30
2023-05-19T02:22:02.673Z,12.30
2023-05-19T02:24:29.425Z,12.30
2023-05-19T02:26:56.217Z,12.30
2023-05-19T02:29:22.881Z,12.30
2023-05-19T02:31:49.598Z,12.30
2023-05-19T02:34:16.452Z,12.20
2023-05-19T02:36:43.215Z,12.20
2023-05-19T02:39:11.067Z,12.10
2023-05-19T02:41:38.811Z,12.10
2023-05-19T02:44:05.589Z,12.10
2023-05-19T02:46:32.416Z,12.10
2023-05-19T02:48:59.589Z,12.00
2023-05-19T02:51:26.260Z,12.00
2023-05-19T02:53:52.942Z,12.00
2023-05-19T02:56:19.600Z,11.90
2023-05-19T02:58:46.318Z,11.90
2023-05-19T03:01:13.003Z,11.90
2023-05-19T03:03:39.849Z,11.90
2023-05-19T03:06:08.665Z,11.90
2023-05-19T03:08:36.158Z,11.90
2023-05-19T03:11:03.480Z,11.90
2023-05-19T03:13:30.178Z,11.80
2023-05-19T03:15:58.679Z,11.80
2023-05-19T03:18:26.839Z,11.90
2023-05-19T03:20:56.745Z,11.90
2023-05-19T03:23:23.447Z,11.80
2023-05-19T03:25:50.941Z,11.80
2023-05-19T03:28:17.577Z,11.80
2023-05-19T03:30:44.228Z,11.80
2023-05-19T03:33:11.355Z,11.70
2023-05-19T03:35:38.195Z,11.70
2023-05-19T03:38:04.804Z,11.70
2023-05-19T03:40:31.789Z,11.70
2023-05-19T03:42:58.729Z,11.70
2023-05-19T03:45:25.393Z,11.70
2023-05-19T03:47:52.100Z,11.60
2023-05-19T03:50:18.875Z,11.70
2023-05-19T03:52:47.334Z,11.70
2023-05-19T03:55:20.120Z,11.60
2023-05-19T03:57:46.998Z,11.70
2023-05-19T04:00:14.133Z,11.70
2023-05-19T04:02:41.153Z,11.70
2023-05-19T04:05:08.498Z,11.70
2023-05-19T04:07:35.848Z,11.60
2023-05-19T04:10:05.440Z,11.60
2023-05-19T04:12:32.118Z,11.60
2023-05-19T04:14:59.089Z,11.50
2023-05-19T04:17:26.474Z,11.50
2023-05-19T04:19:53.972Z,11.50
2023-05-19T04:22:20.841Z,11.60
2023-05-19T04:24:47.661Z,11.50
2023-05-19T04:27:15.960Z,11.40
2023-05-19T04:29:42.629Z,11.50
2023-05-19T04:32:10.620Z,11.50
2023-05-19T04:34:40.351Z,11.50
2023-05-19T04:37:07.879Z,11.50
2023-05-19T04:39:34.713Z,11.40
2023-05-19T04:42:02.657Z,11.50
2023-05-19T04:44:30.040Z,11.50
2023-05-19T04:46:58.034Z,11.40
2023-05-19T04:49:24.783Z,11.30
2023-05-19T04:51:55.572Z,11.20
2023-05-19T04:54:22.724Z,11.20
2023-05-19T04:56:49.435Z,11.20
2023-05-19T04:59:16.407Z,11.20
2023-05-19T05:01:43.324Z,11.10
2023-05-19T05:04:10.155Z,11.20
2023-05-19T05:06:38.416Z,11.20
2023-05-19T05:09:05.127Z,11.30
2023-05-19T05:11:32.047Z,11.40
2023-05-19T05:13:59.092Z,11.40
2023-05-19T05:16:26.580Z,11.60
2023-05-19T05:18:53.470Z,11.70
2023-05-19T05:21:20.568Z,11.90
2023-05-19T05:23:47.599Z,12.00
2023-05-19T05:26:19.516Z,12.10
2023-05-19T05:28:46.164Z,12.10
2023-05-19T05:31:12.972Z,12.10
2023-05-19T05:33:40.011Z,12.10
2023-05-19T05:36:07.017Z,12.10
2023-05-19T05:38:34.118Z,12.20
2023-05-19T05:41:02.010Z,12.30
2023-05-19T05:43:29.632Z,12.30
2023-05-19T05:45:57.255Z,12.30
2023-05-19T05:48:24.621Z,12.40
2023-05-19T05:50:53.120Z,12.30
2023-05-19T05:53:20.696Z,12.20
2023-05-19T05:55:47.955Z,12.20
2023-05-19T05:58:15.580Z,12.20
2023-05-19T06:00:48.546Z,12.10
2023-05-19T06:03:16.896Z,12.10
2023-05-19T06:05:43.773Z,12.10
2023-05-19T06:08:10.626Z,12.20
2023-05-19T06:10:38.973Z,12.20
2023-05-19T06:13:05.820Z,12.10
2023-05-19T06:15:32.544Z,12.20
2023-05-19T06:17:59.512Z,12.30
2023-05-19T06:20:26.282Z,12.30
2023-05-19T06:22:53.083Z,12.40
2023-05-19T06:25:20.621Z,12.50
2023-05-19T06:27:47.320Z,12.50
2023-05-19T06:30:14.477Z,12.50
2023-05-19T06:32:41.360Z,12.50
2023-05-19T06:35:08.304Z,12.50
2023-05-19T06:37:34.952Z,12.60
2023-05-19T06:40:01.684Z,12.60
2023-05-19T06:42:28.553Z,12.60
2023-05-19T06:44:55.725Z,12.60
2023-05-19T06:47:22.438Z,12.50
2023-05-19T06:49:55.308Z,12.60
2023-05-19T06:52:22.879Z,12.60
2023-05-19T06:54:50.285Z,12.60
2023-05-19T06:57:16.989Z,12.60
2023-05-19T06:59:44.972Z,12.70
2023-05-19T07:02:11.699Z,12.70
2023-05-19T07:04:39.817Z,12.70
2023-05-19T07:07:06.777Z,12.70
2023-05-19T07:09:33.767Z,12.70
2023-05-19T07:12:01.217Z,12.60
2023-05-19T07:14:27.949Z,12.60
2023-05-19T07:16:54.860Z,12.60
2023-05-19T07:19:22.451Z,12.50
2023-05-19T07:21:49.346Z,12.40
2023-05-19T07:24:16.272Z,12.50
2023-05-19T07:26:42.936Z,12.50
2023-05-19T07:29:09.807Z,12.60
2023-05-19T07:31:36.505Z,12.60
2023-05-19T07:34:03.558Z,12.60
2023-05-19T07:36:30.357Z,12.60
2023-05-19T07:38:57.044Z,12.70
2023-05-19T07:41:23.733Z,12.70
2023-05-19T07:43:50.448Z,12.80
2023-05-19T07:46:17.195Z,12.80
2023-05-19T07:48:44.009Z,12.70
2023-05-19T07:51:12.715Z,12.80
2023-05-19T07:53:39.366Z,12.80
2023-05-19T07:56:06.724Z,12.90
2023-05-19T07:58:33.583Z,12.90
2023-05-19T08:01:00.685Z,13.00
2023-05-19T08:03:27.726Z,12.90
2023-05-19T08:05:54.565Z,13.00
2023-05-19T08:08:21.852Z,13.10
2023-05-19T08:10:48.530Z,13.10
2023-05-19T08:13:15.325Z,13.10
2023-05-19T08:15:42.661Z,13.20
2023-05-19T08:18:09.559Z,13.10
2023-05-19T08:20:36.685Z,13.00
2023-05-19T08:23:03.377Z,13.10
2023-05-19T08:25:30.004Z,12.90
2023-05-19T08:27:56.811Z,13.00
2023-05-19T08:30:23.853Z,13.00
2023-05-19T08:32:50.622Z,13.00
2023-05-19T08:35:17.928Z,13.10
2023-05-19T08:37:44.584Z,13.20
2023-05-19T08:40:17.583Z,13.10
2023-05-19T08:42:45.727Z,13.30
2023-05-19T08:45:13.284Z,13.30
2023-05-19T08:47:47.058Z,13.30
2023-05-19T08:50:17.353Z,13.30
2023-05-19T08:52:57.625Z,13.40
2023-05-19T08:55:36.145Z,13.50
2023-05-19T08:58:04.915Z,13.50
2023-05-19T09:00:32.672Z,13.40
2023-05-19T09:03:17.389Z,13.40
2023-05-19T09:05:46.387Z,13.40
2023-05-19T09:08:13.698Z,13.40
2023-05-19T09:10:40.581Z,13.40
2023-05-19T09:13:07.397Z,13.40
2023-05-19T09:15:36.830Z,13.30
2023-05-19T09:18:14.980Z,13.50
2023-05-19T09:20:43.701Z,13.50
2023-05-19T09:23:14.990Z,13.50
2023-05-19T09:25:53.188Z,13.30
2023-05-19T09:28:33.158Z,13.40
2023-05-19T09:31:04.287Z,13.40
2023-05-19T09:33:33.574Z,13.50
2023-05-19T09:36:00.623Z,13.60
2023-05-19T09:38:27.586Z,13.60
2023-05-19T09:40:59.526Z,13.80
2023-05-19T09:43:30.109Z,13.60
2023-05-19T09:46:06.725Z,13.70
2023-05-19T09:48:34.659Z,13.80
2023-05-19T09:51:02.295Z,13.70
2023-05-19T09:53:32.591Z,13.60
2023-05-19T09:56:01.558Z,13.60
2023-05-19T09:58:34.531Z,13.80
2023-05-19T10:01:02.133Z,13.80
2023-05-19T10:03:29.780Z,13.70
2023-05-19T10:05:57.025Z,13.60
2023-05-19T10:08:27.228Z,13.70
2023-05-19T10:10:54.826Z,13.70
2023-05-19T10:13:22.554Z,13.60
2023-05-19T10:15:58.351Z,13.70
2023-05-19T10:18:27.615Z,13.80
2023-05-19T10:20:54.670Z,13.80
2023-05-19T10:23:22.187Z,13.90
2023-05-19T10:25:51.777Z,13.80
2023-05-19T10:28:23.570Z,13.70
2023-05-19T10:30:54.314Z,13.90
2023-05-19T10:33:23.050Z,13.90
2023-05-19T10:36:33.640Z,13.90
2023-05-19T10:39:13.578Z,14.00
2023-05-19T10:42:04.722Z,14.10
2023-05-19T10:44:53.298Z,14.10
2023-05-19T10:47:24.428Z,14.00
2023-05-19T10:49:53.805Z,14.10
2023-05-19T10:52:23.468Z,14.10
2023-05-19T10:54:51.352Z,14.00
2023-05-19T10:57:21.103Z,14.00
2023-05-19T10:59:49.499Z,14.00
2023-05-19T11:02:41.514Z,14.00
2023-05-19T11:05:10.711Z,13.90
2023-05-19T11:07:37.543Z,14.00
2023-05-19T11:10:07.830Z,13.90
2023-05-19T11:12:45.372Z,14.00
2023-05-19T11:15:14.244Z,13.90
2023-05-19T11:17:42.514Z,14.00
2023-05-19T11:20:19.770Z,14.00
2023-05-19T11:23:07.220Z,13.90
2023-05-19T11:25:44.836Z,13.90
2023-05-19T11:28:14.725Z,14.00
2023-05-19T11:30:42.830Z,14.00
2023-05-19T11:33:10.287Z,14.20
2023-05-19T11:35:37.626Z,14.30
2023-05-19T11:38:05.888Z,14.30
2023-05-19T11:40:33.271Z,14.10
2023-05-19T11:43:01.799Z,14.10
2023-05-19T11:45:31.135Z,14.10
2023-05-19T11:48:02.747Z,14.20
2023-05-19T11:50:36.830Z,14.30
2023-05-19T11:53:03.645Z,14.50
2023-05-19T11:55:30.511Z,14.60
2023-05-19T11:58:04.518Z,14.60
2023-05-19T12:00:40.313Z,14.60
2023-05-19T12:03:08.899Z,14.70
2023-05-19T12:05:47.840Z,14.70
2023-05-19T12:08:17.064Z,14.80
2023-05-19T12:10:43.822Z,14.90
2023-05-19T12:13:11.026Z,14.90
2023-05-19T12:15:38.907Z,14.90
2023-05-19T12:18:06.542Z,15.00
2023-05-19T12:20:35.423Z,15.10
2023-05-19T12:23:03.060Z,15.10
2023-05-19T12:25:31.041Z,15.10
2023-05-19T12:28:02.832Z,15.10
2023-05-19T12:30:31.189Z,15.10
2023-05-19T12:33:02.716Z,15.20
2023-05-19T12:35:36.376Z,15.20
2023-05-19T12:38:09.482Z,15.30
2023-05-19T12:40:40.425Z,15.40
2023-05-19T12:43:07.788Z,15.30
2023-05-19T12:45:38.384Z,15.40
2023-05-19T12:48:11.242Z,15.40
2023-05-19T12:50:38.474Z,15.50
2023-05-19T12:53:09.061Z,15.50
2023-05-19T12:55:41.864Z,15.60
2023-05-19T12:58:08.925Z,15.50
2023-05-19T13:00:41.139Z,15.60
2023-05-19T13:03:14.514Z,15.40
2023-05-19T13:05:46.193Z,15.50
2023-05-19T13:08:18.180Z,15.50
2023-05-19T13:10:46.027Z,15.60
2023-05-19T13:13:13.501Z,15.60
2023-05-19T13:15:48.968Z,15.70
2023-05-19T13:18:15.991Z,15.60
2023-05-19T13:20:44.277Z,15.50
2023-05-19T13:23:14.131Z,15.60
2023-05-19T13:25:41.566Z,15.60
2023-05-19T13:28:08.553Z,15.60
2023-05-19T13:30:38.390Z,15.60
2023-05-19T13:33:05.140Z,15.60
2023-05-19T13:35:42.471Z,15.50
2023-05-19T13:38:10.661Z,15.50
2023-05-19T13:40:38.465Z,15.60
2023-05-19T13:43:05.770Z,15.60
2023-05-19T13:45:32.453Z,15.50
2023-05-19T13:47:59.540Z,15.50
2023-05-19T13:50:26.403Z,15.50
2023-05-19T13:52:53.792Z,15.40
2023-05-19T13:55:20.549Z,15.40
2023-05-19T13:57:47.169Z,15.50
2023-05-19T14:00:14.472Z,15.40
2023-05-19T14:02:43.032Z,15.50
2023-05-19T14:05:10.235Z,15.50
2023-05-19T14:07:37.010Z,15.40
2023-05-19T14:10:06.485Z,15.40
2023-05-19T14:12:41.442Z,15.50
2023-05-19T14:15:14.228Z,15.50
2023-05-19T14:17:40.958Z,15.50
2023-05-19T14:20:08.436Z,15.50
2023-05-19T14:22:35.134Z,15.50
2023-05-19T14:25:02.419Z,15.60
2023-05-19T14:27:29.206Z,15.70
2023-05-19T14:29:55.873Z,15.80
2023-05-19T14:32:22.606Z,15.90
2023-05-19T14:34:52.715Z,15.90
2023-05-19T14:37:20.125Z,16.00
2023-05-19T14:39:46.838Z,15.80
2023-05-19T14:42:13.480Z,15.80
2023-05-19T14:44:40.104Z,15.80
2023-05-19T14:47:07.338Z,15.90
2023-05-19T14:49:34.265Z,15.90
2023-05-19T14:52:01.081Z,16.00
2023-05-19T14:54:28.057Z,16.10
2023-05-19T14:56:54.854Z,16.10
2023-05-19T14:59:21.756Z,16.20
2023-05-19T15:01:48.631Z,16.30
2023-05-19T15:04:15.463Z,16.30
2023-05-19T15:06:42.259Z,16.30
2023-05-19T15:09:09.378Z,16.40
2023-05-19T15:11:36.129Z,16.30
2023-05-19T15:14:02.759Z,16.40
2023-05-19T15:16:29.541Z,16.30
2023-05-19T15:18:56.729Z,16.20
2023-05-19T15:21:23.483Z,16.20
2023-05-19T15:23:50.305Z,16.20
2023-05-19T15:26:17.142Z,16.10
2023-05-19T15:28:43.794Z,16.20
2023-05-19T15:31:10.548Z,16.10
2023-05-19T15:33:37.297Z,16.30
2023-05-19T15:36:04.181Z,16.30
2023-05-19T15:38:36.139Z,16.30
2023-05-19T15:41:07.674Z,16.10
2023-05-19T15:43:34.884Z,16.00
2023-05-19T15:46:01.607Z,15.90
2023-05-19T15:48:33.345Z,16.00
2023-05-19T15:51:00.226Z,16.00
2023-05-19T15:53:26.939Z,16.00
2023-05-19T15:55:53.644Z,15.90
2023-05-19T15:58:20.353Z,15.80
2023-05-19T16:00:47.099Z,15.80
2023-05-19T16:03:13.893Z,15.70
2023-05-19T16:05:40.789Z,15.60
2023-05-19T16:08:08.801Z,15.60
2023-05-19T16:10:36.094Z,15.60
2023-05-19T16:13:02.761Z,15.70
2023-05-19T16:15:29.443Z,15.60
2023-05-19T16:17:56.736Z,15.50
2023-05-19T16:20:26.722Z,15.50
2023-05-19T16:22:54.004Z,15.40
2023-05-19T16:25:21.024Z,15.50
2023-05-19T16:27:47.636Z,15.50
2023-05-19T16:30:17.459Z,15.30
2023-05-19T16:32:44.176Z,15.30
2023-05-19T16:35:10.925Z,15.30
2023-05-19T16:37:37.734Z,15.30
2023-05-19T16:40:04.874Z,15.30
2023-05-19T16:42:32.289Z,15.30
2023-05-19T16:44:58.925Z,15.30
2023-05-19T16:47:25.713Z,15.30
2023-05-19T16:49:52.569Z,15.30
2023-05-19T16:52:19.987Z,15.40
2023-05-19T16:54:46.745Z,15.30
2023-05-19T16:57:15.483Z,15.30
2023-05-19T16:59:42.516Z,15.30
2023-05-19T17:02:09.285Z,15.40
2023-05-19T17:04:36.014Z,15.30
2023-05-19T17:07:02.644Z,15.30
2023-05-19T17:09:29.252Z,15.30
2023-05-19T17:11:56.444Z,15.20
2023-05-19T17:14:23.101Z,15.20
2023-05-19T17:16:49.803Z,15.20
2023-05-19T17:19:16.769Z,15.20
2023-05-19T17:21:43.461Z,15.20
2023-05-19T17:24:10.209Z,15.20
2023-05-19T17:26:37.145Z,15.30
2023-05-19T17:29:03.868Z,15.30
2023-05-19T17:31:30.837Z,15.20
2023-05-19T17:33:57.469Z,15.20
2023-05-19T17:36:24.163Z,15.20
2023-05-19T17:38:50.808Z,15.10
2023-05-19T17:41:17.518Z,15.10
2023-05-19T17:43:44.185Z,15.20
2023-05-19T17:46:11.554Z,15.20
2023-05-19T17:48:39.567Z,15.10
2023-05-19T17:51:09.085Z,15.10
2023-05-19T17:53:36.456Z,15.10
2023-05-19T17:56:05.851Z,15.10
2023-05-19T17:58:32.610Z,15.10
2023-05-19T18:00:59.456Z,15.10
2023-05-19T18:03:26.488Z,15.10
2023-05-19T18:05:53.437Z,15.00
2023-05-19T18:08:20.276Z,15.00
2023-05-19T18:10:48.511Z,15.10
2023-05-19T18:13:15.209Z,15.10
2023-05-19T18:15:41.900Z,15.10
2023-05-19T18:18:10.368Z,15.10
2023-05-19T18:20:44.086Z,15.10
2023-05-19T18:23:11.030Z,15.00
2023-05-19T18:25:38.001Z,15.00
2023-05-19T18:28:04.913Z,14.90
2023-05-19T18:30:31.917Z,14.90
2023-05-19T18:33:01.947Z,14.90
2023-05-19T18:35:28.839Z,14.70
2023-05-19T18:37:56.824Z,14.80
2023-05-19T18:40:23.663Z,14.80
2023-05-19T18:42:50.854Z,14.80
2023-05-19T18:45:17.459Z,14.70
2023-05-19T18:47:44.131Z,14.70
2023-05-19T18:50:10.922Z,14.70
2023-05-19T18:52:37.569Z,14.70
2023-05-19T18:55:04.515Z,14.70
2023-05-19T18:57:31.742Z,14.80
2023-05-19T18:59:58.511Z,14.70
2023-05-19T19:02:25.247Z,14.70
2023-05-19T19:04:51.915Z,14.60
2023-05-19T19:07:18.639Z,14.70
2023-05-19T19:09:45.502Z,14.70
2023-05-19T19:12:12.181Z,14.70
2023-05-19T19:14:38.934Z,14.60
2023-05-19T19:17:06.053Z,14.60
2023-05-19T19:19:32.955Z,14.60
2023-05-19T19:21:59.665Z,14.70
2023-05-19T19:24:26.627Z,14.70
2023-05-19T19:26:53.206Z,14.60
2023-05-19T19:29:21.811Z,14.60
2023-05-19T19:31:48.774Z,14.60
2023-05-19T19:34:15.593Z,14.60
2023-05-19T19:36:42.268Z,14.60
2023-05-19T19:39:09.518Z,14.60
2023-05-19T19:41:36.587Z,14.60
2023-05-19T19:44:03.603Z,14.60
2023-05-19T19:46:30.483Z,14.60
2023-05-19T19:49:00.272Z,14.70
2023-05-19T19:51:27.920Z,14.70
2023-05-19T19:53:55.002Z,14.60
2023-05-19T19:56:24.412Z,14.50
2023-05-19T19:58:51.116Z,14.50
2023-05-19T20:01:20.286Z,14.50
2023-05-19T20:03:48.446Z,14.40
2023-05-19T20:06:15.274Z,14.20
2023-05-19T20:08:41.912Z,14.20
2023-05-19T20:11:09.043Z,14.00
2023-05-19T20:13:35.825Z,14.10
2023-05-19T20:16:02.526Z,14.10
2023-05-19T20:18:29.894Z,14.10
2023-05-19T20:20:56.863Z,14.10
2023-05-19T20:23:23.594Z,14.10
2023-05-19T20:26:06.733Z,14.00
2023-05-19T20:28:37.247Z,14.10
2023-05-19T20:31:05.683Z,14.00
2023-05-19T20:33:32.420Z,13.80
2023-05-19T20:35:59.057Z,13.80
2023-05-19T20:38:25.925Z,13.90
2023-05-19T20:40:53.430Z,13.80
2023-05-19T20:43:20.529Z,13.90
2023-05-19T20:45:47.195Z,13.90
2023-05-19T20:48:15.578Z,14.00
2023-05-19T20:50:42.286Z,13.90
2023-05-19T20:53:09.000Z,14.00
2023-05-19T20:55:38.956Z,13.90
2023-05-19T20:58:05.762Z,13.80
2023-05-19T21:00:32.828Z,13.80
2023-05-19T21:02:59.816Z,13.90
2023-05-19T21:05:26.585Z,13.90
2023-05-19T21:07:53.204Z,13.90
2023-05-19T21:10:19.870Z,13.90
2023-05-19T21:12:46.937Z,13.80
2023-05-19T21:15:14.070Z,13.70
2023-05-19T21:17:40.809Z,13.70
2023-05-19T21:20:08.196Z,13.70
2023-05-19T21:22:35.962Z,13.80
2023-05-19T21:25:02.831Z,13.70
2023-05-19T21:27:29.820Z,13.80
2023-05-19T21:29:56.458Z,13.80
2023-05-19T21:32:23.082Z,13.80
2023-05-19T21:34:49.745Z,13.80
2023-05-19T21:37:17.562Z,13.90
2023-05-19T21:39:44.464Z,13.90
2023-05-19T21:42:11.148Z,13.90
2023-05-19T21:44:37.907Z,13.90
2023-05-19T21:47:04.714Z,14.00
2023-05-19T21:49:31.596Z,14.00
2023-05-19T21:51:58.416Z,14.00
2023-05-19T21:54:25.112Z,14.00
2023-05-19T21:56:51.786Z,14.00
2023-05-19T21:59:19.420Z,14.00
2023-05-19T22:01:46.631Z,14.10
2023-05-19T22:04:15.117Z,14.10
2023-05-19T22:06:43.123Z,14.10
2023-05-19T22:09:09.950Z,14.10
2023-05-19T22:11:36.672Z,14.10
2023-05-19T22:14:03.303Z,14.20
2023-05-19T22:16:30.997Z,14.10
2023-05-19T22:18:57.869Z,14.10
2023-05-19T22:21:24.535Z,14.00
2023-05-19T22:23:52.250Z,13.90
2023-05-19T22:26:18.998Z,13.90
2023-05-19T22:28:45.686Z,13.80
2023-05-19T22:31:12.363Z,13.70
2023-05-19T22:33:39.058Z,13.80
2023-05-19T22:36:06.345Z,13.80
2023-05-19T22:38:33.092Z,13.70
2023-05-19T22:40:59.830Z,13.70
2023-05-19T22:43:26.458Z,13.60
2023-05-19T22:45:53.222Z,13.50
2023-05-19T22:48:19.970Z,13.60
2023-05-19T22:50:46.767Z,13.60
2023-05-19T22:53:13.407Z,13.60
2023-05-19T22:55:40.355Z,13.60
2023-05-19T22:58:06.985Z,13.70
2023-05-19T23:00:33.830Z,13.70
2023-05-19T23:03:00.640Z,13.70
2023-05-19T23:05:27.342Z,13.70
2023-05-19T23:07:54.153Z,13.80
2023-05-19T23:10:20.800Z,13.70
2023-05-19T23:12:47.475Z,13.80
2023-05-19T23:15:14.084Z,13.80
2023-05-19T23:17:40.760Z,13.80
2023-05-19T23:20:07.821Z,13.80
2023-05-19T23:22:34.552Z,13.90
2023-05-19T23:25:05.527Z,13.90
2023-05-19T23:27:32.166Z,13.90
2023-05-19T23:29:58.788Z,13.90
2023-05-19T23:32:25.648Z,13.90
2023-05-19T23:34:52.303Z,13.90
2023-05-19T23:37:18.998Z,13.90
2023-05-19T23:39:45.690Z,13.90
2023-05-19T23:42:13.099Z,13.80
2023-05-19T23:44:39.692Z,13.90
2023-05-19T23:47:06.962Z,13.90
2023-05-19T23:49:33.905Z,13.90
2023-05-19T23:52:00.531Z,13.90
2023-05-19T23:54:27.204Z,13.90
2023-05-19T23:56:55.685Z,13.90
2023-05-19T23:59:22.420Z,13.90
